createdAt,value
2022-11-22T00:02:01.357Z,9.15
2022-11-22T00:04:31.026Z,9.16
2022-11-22T00:07:02.082Z,9.12
2022-11-22T00:09:31.725Z,9.10
2022-11-22T00:12:02.728Z,9.19
2022-11-22T00:14:32.699Z,9.17
2022-11-22T00:17:02.877Z,9.14
2022-11-22T00:19:32.530Z,9.10
2022-11-22T00:22:03.569Z,8.99
2022-11-22T00:24:33.409Z,8.87
2022-11-22T00:27:03.012Z,8.89
2022-11-22T00:29:32.555Z,8.80
2022-11-22T00:32:02.047Z,8.78
2022-11-22T00:34:31.588Z,8.79
2022-11-22T00:37:01.205Z,8.82
2022-11-22T00:39:32.529Z,8.70
2022-11-22T00:42:02.261Z,8.80
2022-11-22T00:44:31.793Z,8.81
2022-11-22T00:47:01.265Z,8.57
2022-11-22T00:49:31.004Z,8.59
2022-11-22T00:52:00.933Z,8.49
2022-11-22T00:54:30.452Z,8.30
2022-11-22T00:57:01.308Z,8.29
2022-11-22T00:59:31.252Z,8.32
2022-11-22T01:02:00.883Z,8.39
2022-11-22T01:04:30.521Z,8.36
2022-11-22T01:07:00.108Z,8.45
2022-11-22T01:09:30.019Z,8.49
2022-11-22T01:12:01.431Z,8.33
2022-11-22T01:14:31.465Z,8.37
2022-11-22T01:17:01.383Z,8.35
2022-11-22T01:19:31.126Z,8.37
2022-11-22T01:22:00.773Z,8.33
2022-11-22T01:24:30.445Z,8.36
2022-11-22T01:27:01.285Z,8.37
2022-11-22T01:29:30.991Z,8.39
2022-11-22T01:32:01.165Z,8.45
2022-11-22T01:34:30.732Z,8.42
2022-11-22T01:37:00.381Z,8.42
2022-11-22T01:39:30.196Z,8.37
2022-11-22T01:42:01.236Z,8.40
2022-11-22T01:44:31.760Z,8.25
2022-11-22T01:47:01.917Z,8.36
2022-11-22T01:49:33.243Z,8.23
2022-11-22T01:52:04.643Z,8.30
2022-11-22T01:54:35.513Z,8.38
2022-11-22T01:57:09.138Z,8.21
2022-11-22T01:59:40.122Z,8.16
2022-11-22T02:02:09.740Z,8.18
2022-11-22T02:04:39.683Z,8.07
2022-11-22T02:07:12.178Z,8.22
2022-11-22T02:09:42.014Z,8.24
2022-11-22T02:12:14.280Z,8.17
2022-11-22T02:14:45.336Z,8.18
2022-11-22T02:17:15.384Z,8.22
2022-11-22T02:19:45.702Z,8.26
2022-11-22T02:22:26.533Z,8.29
2022-11-22T02:24:58.164Z,8.25
2022-11-22T02:27:29.119Z,8.23
2022-11-22T02:29:58.689Z,8.24
2022-11-22T02:32:28.180Z,8.05
2022-11-22T02:34:57.767Z,8.13
2022-11-22T02:37:28.721Z,7.98
2022-11-22T02:40:04.426Z,8.10
2022-11-22T02:42:36.709Z,7.88
2022-11-22T02:45:06.822Z,7.90
2022-11-22T02:47:36.353Z,7.95
2022-11-22T02:50:06.360Z,7.93
2022-11-22T02:52:35.908Z,8.00
2022-11-22T02:55:05.811Z,7.77
2022-11-22T02:57:36.940Z,7.93
2022-11-22T03:00:07.321Z,7.95
2022-11-22T03:02:36.885Z,7.81
2022-11-22T03:05:06.550Z,7.87
2022-11-22T03:07:36.235Z,7.88
2022-11-22T03:10:06.021Z,7.83
2022-11-22T03:12:37.586Z,7.72
2022-11-22T03:15:07.869Z,7.74
2022-11-22T03:17:38.094Z,7.71
2022-11-22T03:20:08.327Z,7.83
2022-11-22T03:22:37.988Z,7.75
2022-11-22T03:25:07.856Z,7.70
2022-11-22T03:27:38.685Z,7.64
2022-11-22T03:30:08.820Z,7.73
2022-11-22T03:32:38.310Z,7.73
2022-11-22T03:35:08.129Z,7.69
2022-11-22T03:37:37.906Z,7.67
2022-11-22T03:40:08.315Z,7.72
2022-11-22T03:42:39.205Z,7.65
2022-11-22T03:45:09.138Z,7.71
2022-11-22T03:47:38.647Z,7.76
2022-11-22T03:50:08.573Z,7.76
2022-11-22T03:52:38.145Z,7.82
2022-11-22T03:55:07.878Z,7.72
2022-11-22T03:57:37.396Z,7.57
2022-11-22T04:00:09.992Z,7.53
2022-11-22T04:02:39.575Z,7.30
2022-11-22T04:05:09.330Z,7.34
2022-11-22T04:07:39.076Z,7.29
2022-11-22T04:10:08.982Z,7.40
2022-11-22T04:12:39.121Z,7.26
2022-11-22T04:15:10.214Z,7.33
2022-11-22T04:17:44.785Z,7.19
2022-11-22T04:20:33.925Z,7.24
2022-11-22T04:23:04.680Z,7.25
2022-11-22T04:25:34.232Z,7.25
2022-11-22T04:28:04.461Z,7.09
2022-11-22T04:30:52.987Z,7.18
2022-11-22T04:33:22.979Z,7.25
2022-11-22T04:35:52.849Z,7.23
2022-11-22T04:38:23.113Z,7.32
2022-11-22T04:40:53.042Z,7.27
2022-11-22T04:43:41.366Z,7.22
2022-11-22T04:46:12.610Z,7.34
2022-11-22T04:48:42.077Z,7.34
2022-11-22T04:51:31.345Z,7.37
2022-11-22T04:54:00.903Z,7.37
2022-11-22T04:56:30.401Z,7.18
2022-11-22T04:59:00.087Z,7.26
2022-11-22T05:01:31.010Z,7.13
2022-11-22T05:04:00.723Z,7.24
2022-11-22T05:06:30.370Z,7.29
2022-11-22T05:08:59.835Z,7.24
2022-11-22T05:11:29.468Z,7.28
2022-11-22T05:13:59.709Z,7.27
2022-11-22T05:16:31.339Z,7.20
2022-11-22T05:19:00.822Z,7.15
2022-11-22T05:21:30.790Z,6.88
2022-11-22T05:23:59.358Z,7.00
2022-11-22T05:26:30.421Z,7.05
2022-11-22T05:29:00.371Z,7.12
2022-11-22T05:31:31.341Z,7.14
2022-11-22T05:34:01.154Z,7.02
2022-11-22T05:36:32.476Z,6.71
2022-11-22T05:39:02.195Z,6.95
2022-11-22T05:41:31.780Z,7.04
2022-11-22T05:44:01.305Z,6.86
2022-11-22T05:46:32.338Z,6.79
2022-11-22T05:49:01.891Z,6.80
2022-11-22T05:51:34.633Z,7.02
2022-11-22T05:54:04.908Z,7.02
2022-11-22T05:56:34.505Z,7.07
2022-11-22T05:59:04.534Z,6.93
2022-11-22T06:01:35.361Z,6.89
2022-11-22T06:04:04.892Z,7.06
2022-11-22T06:06:34.464Z,6.97
2022-11-22T06:09:04.614Z,7.00
2022-11-22T06:11:34.205Z,7.10
2022-11-22T06:14:09.809Z,7.05
2022-11-22T06:16:40.828Z,6.77
2022-11-22T06:19:10.365Z,6.77
2022-11-22T06:21:40.076Z,6.95
2022-11-22T06:24:10.100Z,7.01
2022-11-22T06:26:39.805Z,6.87
2022-11-22T06:29:09.440Z,7.19
2022-11-22T06:31:40.309Z,7.05
2022-11-22T06:34:09.992Z,7.24
2022-11-22T06:36:39.594Z,7.35
2022-11-22T06:39:09.117Z,7.28
2022-11-22T06:41:39.008Z,7.31
2022-11-22T06:44:09.731Z,7.49
2022-11-22T06:46:40.657Z,7.57
2022-11-22T06:49:10.284Z,7.59
2022-11-22T06:51:40.065Z,7.67
2022-11-22T06:54:11.867Z,7.74
2022-11-22T06:56:41.950Z,7.77
2022-11-22T06:59:11.726Z,7.84
2022-11-22T07:01:42.640Z,7.94
2022-11-22T07:04:12.173Z,7.85
2022-11-22T07:06:44.179Z,7.78
2022-11-22T07:09:14.012Z,7.64
2022-11-22T07:11:48.294Z,7.86
2022-11-22T07:14:18.408Z,8.00
2022-11-22T07:16:49.996Z,8.03
2022-11-22T07:19:19.567Z,8.23
2022-11-22T07:21:49.643Z,8.33
2022-11-22T07:24:19.157Z,8.47
2022-11-22T07:26:48.805Z,8.60
2022-11-22T07:29:18.392Z,8.66
2022-11-22T07:31:48.029Z,8.72
2022-11-22T07:34:18.892Z,8.79
2022-11-22T07:36:48.422Z,8.98
2022-11-22T07:39:18.340Z,9.13
2022-11-22T07:41:47.878Z,9.29
2022-11-22T07:44:17.363Z,9.36
2022-11-22T07:46:47.994Z,9.49
2022-11-22T07:49:19.050Z,9.64
2022-11-22T07:51:48.647Z,9.62
2022-11-22T07:54:18.061Z,9.64
2022-11-22T07:56:47.562Z,9.73
2022-11-22T07:59:17.051Z,9.86
2022-11-22T08:01:47.374Z,9.83
2022-11-22T08:04:16.943Z,9.87
2022-11-22T08:06:47.871Z,9.92
2022-11-22T08:09:17.389Z,10.09
2022-11-22T08:11:47.132Z,10.26
2022-11-22T08:14:17.119Z,10.41
2022-11-22T08:16:47.082Z,10.35
2022-11-22T08:19:17.987Z,10.28
2022-11-22T08:21:52.587Z,10.31
2022-11-22T08:24:25.469Z,10.52
2022-11-22T08:26:55.046Z,10.85
2022-11-22T08:29:24.580Z,10.89
2022-11-22T08:31:54.269Z,11.00
2022-11-22T08:34:23.846Z,11.14
2022-11-22T08:36:54.799Z,11.13
2022-11-22T08:39:24.381Z,11.18
2022-11-22T08:41:53.936Z,11.24
2022-11-22T08:44:23.401Z,11.27
2022-11-22T08:46:52.881Z,11.32
2022-11-22T08:49:22.481Z,11.28
2022-11-22T08:51:51.977Z,10.97
2022-11-22T08:54:22.936Z,11.07
2022-11-22T08:56:52.769Z,11.18
2022-11-22T08:59:22.662Z,11.26
2022-11-22T09:01:52.227Z,11.39
2022-11-22T09:04:22.017Z,11.31
2022-11-22T09:09:42.526Z,11.50
2022-11-22T09:12:15.550Z,11.54
2022-11-22T09:14:46.059Z,11.53
2022-11-22T09:17:18.103Z,11.54
2022-11-22T09:19:48.192Z,11.69
2022-11-22T09:22:17.858Z,11.70
2022-11-22T09:24:48.782Z,11.73
2022-11-22T09:27:18.556Z,11.71
2022-11-22T09:29:48.191Z,11.67
2022-11-22T09:32:17.744Z,11.69
2022-11-22T09:34:47.290Z,11.75
2022-11-22T09:37:19.635Z,11.84
2022-11-22T09:39:50.533Z,11.80
2022-11-22T09:42:26.867Z,11.61
2022-11-22T09:45:11.740Z,11.93
2022-11-22T09:47:48.117Z,12.09
2022-11-22T09:50:23.163Z,12.07
2022-11-22T09:52:55.224Z,12.10
2022-11-22T09:55:30.066Z,12.12
2022-11-22T09:58:05.670Z,12.22
2022-11-22T10:00:35.986Z,12.28
2022-11-22T10:03:09.446Z,12.33
2022-11-22T10:05:42.519Z,12.46
2022-11-22T10:08:31.318Z,12.41
2022-11-22T10:11:02.791Z,12.41
2022-11-22T10:13:36.004Z,12.37
2022-11-22T10:16:11.922Z,12.41
2022-11-22T10:18:45.229Z,12.48
2022-11-22T10:21:15.626Z,12.54
2022-11-22T10:23:46.986Z,12.76
2022-11-22T10:26:22.173Z,12.73
2022-11-22T10:29:05.246Z,12.77
2022-11-22T10:31:39.357Z,12.79
2022-11-22T10:34:17.721Z,12.81
2022-11-22T10:36:50.095Z,12.86
2022-11-22T10:39:34.264Z,12.89
2022-11-22T10:42:22.438Z,12.87
2022-11-22T10:44:55.989Z,12.80
2022-11-22T10:47:34.861Z,12.86
2022-11-22T10:50:06.647Z,12.86
2022-11-22T10:52:44.105Z,12.80
2022-11-22T10:55:22.614Z,12.71
2022-11-22T10:57:57.229Z,12.66
2022-11-22T11:00:30.788Z,12.69
2022-11-22T11:03:07.040Z,12.85
2022-11-22T11:06:15.156Z,12.91
2022-11-22T11:09:02.796Z,12.93
2022-11-22T11:11:28.145Z,12.93
2022-11-22T11:14:01.039Z,12.94
2022-11-22T11:16:33.896Z,13.01
2022-11-22T11:19:07.645Z,13.06
2022-11-22T11:21:37.352Z,13.09
2022-11-22T11:24:11.861Z,13.11
2022-11-22T11:26:43.102Z,13.16
2022-11-22T11:29:34.539Z,13.18
2022-11-22T11:32:13.166Z,13.19
2022-11-22T11:34:44.000Z,13.22
2022-11-22T11:37:19.698Z,13.23
2022-11-22T11:39:51.143Z,13.11
2022-11-22T11:42:25.037Z,13.17
2022-11-22T11:44:55.190Z,13.13
2022-11-22T11:47:35.870Z,13.10
2022-11-22T11:50:05.769Z,13.11
2022-11-22T11:52:35.603Z,13.22
2022-11-22T11:55:06.211Z,13.26
2022-11-22T11:57:37.489Z,13.24
2022-11-22T12:00:17.556Z,13.28
2022-11-22T12:02:50.771Z,13.31
2022-11-22T12:05:26.990Z,13.31
2022-11-22T12:07:56.690Z,13.40
2022-11-22T12:10:35.470Z,13.40
2022-11-22T12:13:11.746Z,13.33
2022-11-22T12:15:45.064Z,13.30
2022-11-22T12:18:21.257Z,13.32
2022-11-22T12:20:53.347Z,13.28
2022-11-22T12:23:25.468Z,13.34
2022-11-22T12:25:57.354Z,13.30
2022-11-22T12:28:28.947Z,13.22
2022-11-22T12:31:03.553Z,13.22
2022-11-22T12:33:36.501Z,13.20
2022-11-22T12:36:09.484Z,13.20
2022-11-22T12:38:40.982Z,13.16
2022-11-22T12:41:13.472Z,13.10
2022-11-22T12:43:46.011Z,13.19
2022-11-22T12:46:19.716Z,13.10
2022-11-22T12:48:53.008Z,13.02
2022-11-22T12:51:27.209Z,13.00
2022-11-22T12:54:00.242Z,13.01
2022-11-22T12:56:33.794Z,12.92
2022-11-22T12:59:09.749Z,12.90
2022-11-22T13:01:44.776Z,12.83
2022-11-22T13:04:19.493Z,12.77
2022-11-22T13:06:53.342Z,12.77
2022-11-22T13:09:24.304Z,12.74
2022-11-22T13:11:57.940Z,12.71
2022-11-22T13:14:31.906Z,12.67
2022-11-22T13:17:06.878Z,12.74
2022-11-22T13:19:45.245Z,12.69
2022-11-22T13:22:18.611Z,12.65
2022-11-22T13:24:56.466Z,12.67
2022-11-22T13:27:29.307Z,12.68
2022-11-22T13:30:01.310Z,12.70
2022-11-22T13:32:43.138Z,12.76
2022-11-22T13:35:23.298Z,12.83
2022-11-22T13:37:54.436Z,12.84
2022-11-22T13:40:28.935Z,12.83
2022-11-22T13:43:22.371Z,12.83
2022-11-22T13:45:53.134Z,12.78
2022-11-22T13:48:37.451Z,12.78
2022-11-22T13:51:09.276Z,12.82
2022-11-22T13:53:40.471Z,12.81
2022-11-22T13:56:28.555Z,12.84
2022-11-22T13:59:05.365Z,12.76
2022-11-22T14:01:52.462Z,12.69
2022-11-22T14:04:28.700Z,12.69
2022-11-22T14:07:03.254Z,12.68
2022-11-22T14:09:36.215Z,12.69
2022-11-22T14:12:27.699Z,12.70
2022-11-22T14:15:16.096Z,12.64
2022-11-22T14:17:51.331Z,12.71
2022-11-22T14:20:29.981Z,12.63
2022-11-22T14:23:04.966Z,12.59
2022-11-22T14:25:44.054Z,12.56
2022-11-22T14:28:21.925Z,12.54
2022-11-22T14:30:52.189Z,12.51
2022-11-22T14:33:22.941Z,12.49
2022-11-22T14:36:19.272Z,12.58
2022-11-22T14:38:50.449Z,12.53
2022-11-22T14:41:53.096Z,12.50
2022-11-22T14:44:23.965Z,12.51
2022-11-22T14:46:56.895Z,12.47
2022-11-22T14:49:31.795Z,12.48
2022-11-22T14:52:01.639Z,12.50
2022-11-22T14:54:40.130Z,12.43
2022-11-22T14:57:14.607Z,12.43
2022-11-22T15:00:01.811Z,12.43
2022-11-22T15:02:49.342Z,12.40
2022-11-22T15:09:12.138Z,12.36
2022-11-22T15:09:13.964Z,12.34
2022-11-22T15:11:24.216Z,12.43
2022-11-22T15:14:24.527Z,12.39
2022-11-22T15:57:30.225Z,12.02
2022-11-22T16:00:01.124Z,12.01
2022-11-22T16:02:33.165Z,12.07
2022-11-22T16:06:06.402Z,12.05
2022-11-22T16:07:54.556Z,12.09
2022-11-22T16:10:26.639Z,12.02
2022-11-22T16:12:56.853Z,12.03
2022-11-22T16:15:28.878Z,12.04
2022-11-22T16:18:07.914Z,12.00
2022-11-22T16:20:38.278Z,12.02
2022-11-22T16:23:33.249Z,12.00
2022-11-22T16:26:14.582Z,12.06
2022-11-22T16:28:44.456Z,12.06
2022-11-22T16:31:18.720Z,12.01
2022-11-22T16:33:49.765Z,12.01
2022-11-22T16:36:20.371Z,11.98
2022-11-22T16:38:49.993Z,11.93
2022-11-22T16:41:20.201Z,11.98
2022-11-22T16:43:51.070Z,11.98
2022-11-22T16:46:21.054Z,11.94
2022-11-22T16:48:51.947Z,11.92
2022-11-22T16:51:23.920Z,12.00
2022-11-22T16:53:54.250Z,11.97
2022-11-22T16:56:24.859Z,11.87
2022-11-22T16:58:56.236Z,11.89
2022-11-22T17:01:26.954Z,11.85
2022-11-22T17:03:58.564Z,11.93
2022-11-22T17:06:29.471Z,11.88
2022-11-22T17:08:59.884Z,11.82
2022-11-22T17:11:31.511Z,11.83
2022-11-22T17:14:01.851Z,11.81
2022-11-22T17:16:32.424Z,11.76
2022-11-22T17:19:03.302Z,11.74
2022-11-22T17:21:37.749Z,11.77
2022-11-22T17:24:14.020Z,11.73
2022-11-22T17:26:43.657Z,11.68
2022-11-22T17:29:29.036Z,11.70
2022-11-22T17:32:03.232Z,11.77
2022-11-22T17:34:34.308Z,11.64
2022-11-22T17:37:03.950Z,11.59
2022-11-22T17:39:33.765Z,11.60
2022-11-22T17:42:03.453Z,11.58
2022-11-22T17:44:33.177Z,11.64
2022-11-22T17:47:10.936Z,11.68
2022-11-22T17:49:41.917Z,11.64
2022-11-22T17:52:11.495Z,11.70
2022-11-22T17:54:41.201Z,11.69
2022-11-22T17:57:13.417Z,11.67
2022-11-22T17:59:43.817Z,11.74
2022-11-22T18:02:13.465Z,11.78
2022-11-22T18:04:44.658Z,11.73
2022-11-22T18:07:14.225Z,11.74
2022-11-22T18:09:43.847Z,11.73
2022-11-22T18:12:13.484Z,11.66
2022-11-22T18:14:44.096Z,11.69
2022-11-22T18:17:13.910Z,11.66
2022-11-22T18:19:44.984Z,11.61
2022-11-22T18:22:14.561Z,11.65
2022-11-22T18:24:44.141Z,11.62
2022-11-22T18:27:13.725Z,11.56
2022-11-22T18:29:43.465Z,11.56
2022-11-22T18:32:13.293Z,11.55
2022-11-22T18:34:42.909Z,11.61
2022-11-22T18:37:13.857Z,11.57
2022-11-22T18:39:43.512Z,11.64
2022-11-22T18:42:14.083Z,11.63
2022-11-22T18:44:43.788Z,11.61
2022-11-22T18:47:13.380Z,11.54
2022-11-22T18:49:43.002Z,11.55
2022-11-22T18:52:16.760Z,11.60
2022-11-22T18:54:48.441Z,11.55
2022-11-22T18:57:18.283Z,11.60
2022-11-22T18:59:48.163Z,11.63
2022-11-22T19:02:17.793Z,11.67
2022-11-22T19:04:49.574Z,11.62
2022-11-22T19:07:20.816Z,11.71
2022-11-22T19:09:50.505Z,11.63
2022-11-22T19:12:20.799Z,11.57
2022-11-22T19:14:50.951Z,11.66
2022-11-22T19:17:22.128Z,11.59
2022-11-22T19:19:58.395Z,11.55
2022-11-22T19:22:30.899Z,11.55
2022-11-22T19:25:01.346Z,11.54
2022-11-22T19:27:31.257Z,11.57
2022-11-22T19:30:01.333Z,11.59
2022-11-22T19:32:31.068Z,11.58
2022-11-22T19:35:00.971Z,11.65
2022-11-22T19:37:33.164Z,11.61
2022-11-22T19:40:02.874Z,11.56
2022-11-22T19:42:33.826Z,11.58
2022-11-22T19:45:03.584Z,11.55
2022-11-22T19:47:33.334Z,11.51
2022-11-22T19:50:02.956Z,11.49
2022-11-22T19:52:34.328Z,11.49
2022-11-22T19:55:04.230Z,11.57
2022-11-22T19:57:33.945Z,11.53
2022-11-22T20:00:05.950Z,11.53
2022-11-22T20:02:35.846Z,11.54
2022-11-22T20:05:05.869Z,11.56
2022-11-22T20:07:37.036Z,11.54
2022-11-22T20:10:07.469Z,11.61
2022-11-22T20:12:38.341Z,11.60
2022-11-22T20:15:08.995Z,11.60
2022-11-22T20:17:39.286Z,11.61
2022-11-22T20:20:10.476Z,11.70
2022-11-22T20:22:41.600Z,11.65
2022-11-22T20:25:11.511Z,11.62
2022-11-22T20:27:41.374Z,11.63
2022-11-22T20:30:11.598Z,11.60
2022-11-22T20:32:42.170Z,11.60
2022-11-22T20:35:11.819Z,11.61
2022-11-22T20:37:42.744Z,11.60
2022-11-22T20:40:12.375Z,11.65
2022-11-22T20:42:42.122Z,11.61
2022-11-22T20:45:12.067Z,11.75
2022-11-22T20:47:41.789Z,11.65
2022-11-22T20:50:11.483Z,11.59
2022-11-22T20:52:42.501Z,11.52
2022-11-22T20:55:12.069Z,11.42
2022-11-22T20:57:41.687Z,11.52
2022-11-22T21:00:12.126Z,11.47
2022-11-22T21:02:41.726Z,11.53
2022-11-22T21:05:12.105Z,11.53
2022-11-22T21:07:43.008Z,11.56
2022-11-22T21:10:12.573Z,11.54
2022-11-22T21:12:43.915Z,11.56
2022-11-22T21:15:15.230Z,11.56
2022-11-22T21:18:02.418Z,11.52
2022-11-22T21:20:35.723Z,11.54
2022-11-22T21:23:06.830Z,11.55
2022-11-22T21:25:36.440Z,11.56
2022-11-22T21:28:06.149Z,11.58
2022-11-22T21:30:35.987Z,11.63
2022-11-22T21:33:09.126Z,11.75
2022-11-22T21:35:38.811Z,11.72
2022-11-22T21:38:09.669Z,11.73
2022-11-22T21:40:39.169Z,11.73
2022-11-22T21:43:08.737Z,11.70
2022-11-22T21:45:38.222Z,11.74
2022-11-22T21:48:08.013Z,11.73
2022-11-22T21:50:37.653Z,11.68
2022-11-22T21:53:07.369Z,11.68
2022-11-22T21:55:38.266Z,11.70
2022-11-22T21:58:08.371Z,11.74
2022-11-22T22:00:37.906Z,11.74
2022-11-22T22:03:07.447Z,11.77
2022-11-22T22:05:38.350Z,11.79
2022-11-22T22:08:08.315Z,11.76
2022-11-22T22:10:39.384Z,11.74
2022-11-22T22:13:09.487Z,11.77
2022-11-22T22:15:39.417Z,11.79
2022-11-22T22:18:09.109Z,11.77
2022-11-22T22:20:39.001Z,11.71
2022-11-22T22:23:08.565Z,11.71
2022-11-22T22:25:41.446Z,11.68
2022-11-22T22:28:13.106Z,11.68
2022-11-22T22:30:44.086Z,11.71
2022-11-22T22:33:13.973Z,11.74
2022-11-22T22:35:43.519Z,11.72
2022-11-22T22:38:13.076Z,11.75
2022-11-22T22:40:43.902Z,11.75
2022-11-22T22:43:13.614Z,11.84
2022-11-22T22:45:43.180Z,11.91
2022-11-22T22:48:12.685Z,11.86
2022-11-22T22:50:42.186Z,12.00
2022-11-22T22:53:11.889Z,11.99
2022-11-22T22:55:41.375Z,12.00
2022-11-22T22:58:12.902Z,11.99
2022-11-22T23:00:42.973Z,11.97
2022-11-22T23:03:12.683Z,11.92
2022-11-22T23:05:42.397Z,11.84
2022-11-22T23:08:12.041Z,11.85
2022-11-22T23:10:42.319Z,11.76
2022-11-22T23:13:13.766Z,11.79
2022-11-22T23:15:57.870Z,11.75
2022-11-22T23:18:28.852Z,11.67
2022-11-22T23:21:01.898Z,11.59
2022-11-22T23:23:31.600Z,11.52
2022-11-22T23:26:02.325Z,11.44
2022-11-22T23:28:33.532Z,11.47
2022-11-22T23:31:06.794Z,11.45
2022-11-22T23:33:36.436Z,11.49
2022-11-22T23:36:06.404Z,11.42
2022-11-22T23:38:36.056Z,11.35
2022-11-22T23:41:05.728Z,11.40
2022-11-22T23:43:36.560Z,11.36
2022-11-22T23:46:06.556Z,11.26
2022-11-22T23:48:36.061Z,11.25
2022-11-22T23:51:05.906Z,11.22
2022-11-22T23:53:35.568Z,11.22
2022-11-22T23:56:05.765Z,11.18
2022-11-22T23:58:36.717Z,11.17
